sensor_id;sensor_type;location;lat;lon;timestamp;pressure;altitude;pressure_sealevel;temperature
35582;BMP180;21687;48.900;9.188;2023-05-14T00:00:55;98442.00;;;10.60
35582;BMP180;21687;48.900;9.188;2023-05-14T00:03:21;98453.00;;;10.60
35582;BMP180;21687;48.900;9.188;2023-05-14T00:05:48;98442.00;;;10.60
35582;BMP180;21687;48.900;9.188;2023-05-14T00:08:14;98436.00;;;10.50
35582;BMP180;21687;48.900;9.188;2023-05-14T00:10:41;98430.00;;;10.50
35582;BMP180;21687;48.900;9.188;2023-05-14T00:13:07;98434.00;;;10.40
35582;BMP180;21687;48.900;9.188;2023-05-14T00:15:34;98426.00;;;10.40
35582;BMP180;21687;48.900;9.188;2023-05-14T00:18:00;98431.00;;;10.30
35582;BMP180;21687;48.900;9.188;2023-05-14T00:20:26;98431.00;;;10.20
35582;BMP180;21687;48.900;9.188;2023-05-14T00:22:53;98419.00;;;10.20
35582;BMP180;21687;48.900;9.188;2023-05-14T00:25:19;98420.00;;;10.10
35582;BMP180;21687;48.900;9.188;2023-05-14T00:27:45;98419.00;;;10.00
35582;BMP180;21687;48.900;9.188;2023-05-14T00:30:12;98419.00;;;9.90
35582;BMP180;21687;48.900;9.188;2023-05-14T00:32:38;98412.00;;;9.80
35582;BMP180;21687;48.900;9.188;2023-05-14T00:35:05;98420.00;;;9.70
35582;BMP180;21687;48.900;9.188;2023-05-14T00:37:31;98421.00;;;9.60
35582;BMP180;21687;48.900;9.188;2023-05-14T00:39:57;98407.00;;;9.50
35582;BMP180;21687;48.900;9.188;2023-05-14T00:42:24;98405.00;;;9.50
35582;BMP180;21687;48.900;9.188;2023-05-14T00:44:52;98400.00;;;9.40
35582;BMP180;21687;48.900;9.188;2023-05-14T00:47:18;98401.00;;;9.30
35582;BMP180;21687;48.900;9.188;2023-05-14T00:49:45;98401.00;;;9.20
35582;BMP180;21687;48.900;9.188;2023-05-14T00:52:13;98403.00;;;9.10
35582;BMP180;21687;48.900;9.188;2023-05-14T00:54:40;98394.00;;;9.10
35582;BMP180;21687;48.900;9.188;2023-05-14T00:57:07;98406.00;;;9.00
35582;BMP180;21687;48.900;9.188;2023-05-14T00:59:33;98408.00;;;8.90
35582;BMP180;21687;48.900;9.188;2023-05-14T01:02:01;98412.00;;;8.90
35582;BMP180;21687;48.900;9.188;2023-05-14T01:04:27;98409.00;;;8.80
35582;BMP180;21687;48.900;9.188;2023-05-14T01:15:11;98394.00;;;8.50
35582;BMP180;21687;48.900;9.188;2023-05-14T01:17:51;98402.00;;;8.50
35582;BMP180;21687;48.900;9.188;2023-05-14T01:20:18;98398.00;;;8.40
35582;BMP180;21687;48.900;9.188;2023-05-14T01:22:45;98403.00;;;8.40
35582;BMP180;21687;48.900;9.188;2023-05-14T01:25:11;98400.00;;;8.50
35582;BMP180;21687;48.900;9.188;2023-05-14T01:30:35;98390.00;;;8.40
35582;BMP180;21687;48.900;9.188;2023-05-14T01:33:05;98390.00;;;8.40
35582;BMP180;21687;48.900;9.188;2023-05-14T01:35:34;98380.00;;;8.30
35582;BMP180;21687;48.900;9.188;2023-05-14T01:38:02;98389.00;;;8.30
35582;BMP180;21687;48.900;9.188;2023-05-14T01:40:31;98378.00;;;8.30
35582;BMP180;21687;48.900;9.188;2023-05-14T01:42:58;98382.00;;;8.30
35582;BMP180;21687;48.900;9.188;2023-05-14T01:45:25;98384.00;;;8.30
35582;BMP180;21687;48.900;9.188;2023-05-14T01:47:52;98386.00;;;8.10
35582;BMP180;21687;48.900;9.188;2023-05-14T01:50:18;98376.00;;;8.10
35582;BMP180;21687;48.900;9.188;2023-05-14T01:52:44;98384.00;;;8.10
35582;BMP180;21687;48.900;9.188;2023-05-14T01:55:11;98391.00;;;8.20
35582;BMP180;21687;48.900;9.188;2023-05-14T01:57:38;98379.00;;;8.10
35582;BMP180;21687;48.900;9.188;2023-05-14T02:00:04;98380.00;;;8.10
35582;BMP180;21687;48.900;9.188;2023-05-14T02:02:31;98388.00;;;8.00
35582;BMP180;21687;48.900;9.188;2023-05-14T02:04:57;98383.00;;;8.10
35582;BMP180;21687;48.900;9.188;2023-05-14T02:07:23;98376.00;;;8.00
35582;BMP180;21687;48.900;9.188;2023-05-14T02:09:50;98384.00;;;8.00
35582;BMP180;21687;48.900;9.188;2023-05-14T02:12:16;98385.00;;;8.00
35582;BMP180;21687;48.900;9.188;2023-05-14T02:14:42;98385.00;;;8.00
35582;BMP180;21687;48.900;9.188;2023-05-14T02:17:08;98384.00;;;7.90
35582;BMP180;21687;48.900;9.188;2023-05-14T02:19:35;98382.00;;;7.90
35582;BMP180;21687;48.900;9.188;2023-05-14T02:22:01;98387.00;;;7.80
35582;BMP180;21687;48.900;9.188;2023-05-14T02:24:27;98379.00;;;7.70
35582;BMP180;21687;48.900;9.188;2023-05-14T02:26:53;98377.00;;;7.60
35582;BMP180;21687;48.900;9.188;2023-05-14T02:29:20;98383.00;;;7.50
35582;BMP180;21687;48.900;9.188;2023-05-14T02:31:46;98376.00;;;7.40
35582;BMP180;21687;48.900;9.188;2023-05-14T02:34:12;98383.00;;;7.50
35582;BMP180;21687;48.900;9.188;2023-05-14T02:36:39;98385.00;;;7.40
35582;BMP180;21687;48.900;9.188;2023-05-14T02:39:05;98391.00;;;7.40
35582;BMP180;21687;48.900;9.188;2023-05-14T02:41:31;98390.00;;;7.50
35582;BMP180;21687;48.900;9.188;2023-05-14T02:43:58;98393.00;;;7.40
35582;BMP180;21687;48.900;9.188;2023-05-14T02:46:24;98385.00;;;7.40
35582;BMP180;21687;48.900;9.188;2023-05-14T02:48:51;98386.00;;;7.50
35582;BMP180;21687;48.900;9.188;2023-05-14T02:51:19;98385.00;;;7.50
35582;BMP180;21687;48.900;9.188;2023-05-14T02:53:46;98381.00;;;7.60
35582;BMP180;21687;48.900;9.188;2023-05-14T02:56:12;98385.00;;;7.60
35582;BMP180;21687;48.900;9.188;2023-05-14T02:58:38;98393.00;;;7.70
35582;BMP180;21687;48.900;9.188;2023-05-14T03:01:05;98387.00;;;7.70
35582;BMP180;21687;48.900;9.188;2023-05-14T03:03:31;98384.00;;;7.80
35582;BMP180;21687;48.900;9.188;2023-05-14T03:05:58;98397.00;;;7.80
35582;BMP180;21687;48.900;9.188;2023-05-14T03:08:24;98389.00;;;7.90
35582;BMP180;21687;48.900;9.188;2023-05-14T03:10:50;98395.00;;;7.90
35582;BMP180;21687;48.900;9.188;2023-05-14T03:13:17;98393.00;;;8.00
35582;BMP180;21687;48.900;9.188;2023-05-14T03:15:46;98397.00;;;8.00
35582;BMP180;21687;48.900;9.188;2023-05-14T03:18:13;98391.00;;;8.00
35582;BMP180;21687;48.900;9.188;2023-05-14T03:20:39;98383.00;;;8.10
35582;BMP180;21687;48.900;9.188;2023-05-14T03:23:06;98385.00;;;8.10
35582;BMP180;21687;48.900;9.188;2023-05-14T03:25:32;98383.00;;;8.10
35582;BMP180;21687;48.900;9.188;2023-05-14T03:27:59;98388.00;;;8.20
35582;BMP180;21687;48.900;9.188;2023-05-14T03:30:25;98381.00;;;8.20
35582;BMP180;21687;48.900;9.188;2023-05-14T03:32:52;98384.00;;;8.10
35582;BMP180;21687;48.900;9.188;2023-05-14T03:35:18;98382.00;;;8.20
35582;BMP180;21687;48.900;9.188;2023-05-14T03:37:45;98388.00;;;8.20
35582;BMP180;21687;48.900;9.188;2023-05-14T03:40:11;98393.00;;;8.20
35582;BMP180;21687;48.900;9.188;2023-05-14T03:42:37;98378.00;;;8.20
35582;BMP180;21687;48.900;9.188;2023-05-14T03:45:04;98386.00;;;8.30
35582;BMP180;21687;48.900;9.188;2023-05-14T03:47:30;98384.00;;;8.30
35582;BMP180;21687;48.900;9.188;2023-05-14T03:49:57;98386.00;;;8.40
35582;BMP180;21687;48.900;9.188;2023-05-14T03:52:23;98385.00;;;8.40
35582;BMP180;21687;48.900;9.188;2023-05-14T03:54:50;98382.00;;;8.50
35582;BMP180;21687;48.900;9.188;2023-05-14T03:57:16;98380.00;;;8.50
35582;BMP180;21687;48.900;9.188;2023-05-14T03:59:43;98374.00;;;8.60
35582;BMP180;21687;48.900;9.188;2023-05-14T04:02:09;98387.00;;;8.60
35582;BMP180;21687;48.900;9.188;2023-05-14T04:04:35;98372.00;;;8.70
35582;BMP180;21687;48.900;9.188;2023-05-14T04:07:02;98371.00;;;8.80
35582;BMP180;21687;48.900;9.188;2023-05-14T04:09:28;98383.00;;;8.80
35582;BMP180;21687;48.900;9.188;2023-05-14T04:11:54;98375.00;;;8.80
35582;BMP180;21687;48.900;9.188;2023-05-14T04:14:21;98376.00;;;8.80
35582;BMP180;21687;48.900;9.188;2023-05-14T04:16:47;98377.00;;;8.80
35582;BMP180;21687;48.900;9.188;2023-05-14T04:19:13;98383.00;;;8.90
35582;BMP180;21687;48.900;9.188;2023-05-14T04:21:39;98377.00;;;8.90
35582;BMP180;21687;48.900;9.188;2023-05-14T04:24:06;98377.00;;;8.90
35582;BMP180;21687;48.900;9.188;2023-05-14T04:26:32;98375.00;;;8.90
35582;BMP180;21687;48.900;9.188;2023-05-14T04:28:58;98374.00;;;9.00
35582;BMP180;21687;48.900;9.188;2023-05-14T04:31:28;98373.00;;;8.90
35582;BMP180;21687;48.900;9.188;2023-05-14T04:33:54;98369.00;;;9.00
35582;BMP180;21687;48.900;9.188;2023-05-14T04:36:22;98369.00;;;9.00
35582;BMP180;21687;48.900;9.188;2023-05-14T04:38:49;98365.00;;;9.10
35582;BMP180;21687;48.900;9.188;2023-05-14T04:41:15;98367.00;;;9.10
35582;BMP180;21687;48.900;9.188;2023-05-14T04:43:42;98377.00;;;9.10
35582;BMP180;21687;48.900;9.188;2023-05-14T04:46:08;98381.00;;;9.00
35582;BMP180;21687;48.900;9.188;2023-05-14T04:48:34;98368.00;;;9.10
35582;BMP180;21687;48.900;9.188;2023-05-14T04:51:00;98367.00;;;9.10
35582;BMP180;21687;48.900;9.188;2023-05-14T04:53:27;98372.00;;;9.20
35582;BMP180;21687;48.900;9.188;2023-05-14T04:55:53;98380.00;;;9.20
35582;BMP180;21687;48.900;9.188;2023-05-14T04:58:20;98380.00;;;9.20
35582;BMP180;21687;48.900;9.188;2023-05-14T05:00:48;98385.00;;;9.30
35582;BMP180;21687;48.900;9.188;2023-05-14T05:03:14;98376.00;;;9.20
35582;BMP180;21687;48.900;9.188;2023-05-14T05:05:41;98377.00;;;9.30
35582;BMP180;21687;48.900;9.188;2023-05-14T05:08:07;98385.00;;;9.30
35582;BMP180;21687;48.900;9.188;2023-05-14T05:10:33;98374.00;;;9.30
35582;BMP180;21687;48.900;9.188;2023-05-14T05:13:00;98378.00;;;9.40
35582;BMP180;21687;48.900;9.188;2023-05-14T05:15:26;98378.00;;;9.40
35582;BMP180;21687;48.900;9.188;2023-05-14T05:17:52;98383.00;;;9.50
35582;BMP180;21687;48.900;9.188;2023-05-14T05:20:18;98375.00;;;9.40
35582;BMP180;21687;48.900;9.188;2023-05-14T05:22:45;98371.00;;;9.60
35582;BMP180;21687;48.900;9.188;2023-05-14T05:25:11;98385.00;;;9.60
35582;BMP180;21687;48.900;9.188;2023-05-14T05:27:38;98373.00;;;9.50
35582;BMP180;21687;48.900;9.188;2023-05-14T05:30:04;98379.00;;;9.60
35582;BMP180;21687;48.900;9.188;2023-05-14T05:32:31;98386.00;;;9.60
35582;BMP180;21687;48.900;9.188;2023-05-14T05:34:58;98372.00;;;9.70
35582;BMP180;21687;48.900;9.188;2023-05-14T05:37:24;98377.00;;;9.80
35582;BMP180;21687;48.900;9.188;2023-05-14T05:39:50;98368.00;;;9.80
35582;BMP180;21687;48.900;9.188;2023-05-14T05:42:17;98376.00;;;9.90
35582;BMP180;21687;48.900;9.188;2023-05-14T05:44:43;98372.00;;;10.00
35582;BMP180;21687;48.900;9.188;2023-05-14T05:47:09;98383.00;;;10.00
35582;BMP180;21687;48.900;9.188;2023-05-14T05:49:36;98373.00;;;10.00
35582;BMP180;21687;48.900;9.188;2023-05-14T05:52:03;98384.00;;;10.10
35582;BMP180;21687;48.900;9.188;2023-05-14T05:54:30;98371.00;;;10.20
35582;BMP180;21687;48.900;9.188;2023-05-14T05:56:58;98370.00;;;10.20
35582;BMP180;21687;48.900;9.188;2023-05-14T05:59:24;98366.00;;;10.30
35582;BMP180;21687;48.900;9.188;2023-05-14T06:01:50;98372.00;;;10.50
35582;BMP180;21687;48.900;9.188;2023-05-14T06:04:17;98369.00;;;10.70
35582;BMP180;21687;48.900;9.188;2023-05-14T06:06:43;98371.00;;;10.70
35582;BMP180;21687;48.900;9.188;2023-05-14T06:09:09;98368.00;;;11.00
35582;BMP180;21687;48.900;9.188;2023-05-14T06:11:36;98368.00;;;11.10
35582;BMP180;21687;48.900;9.188;2023-05-14T06:14:02;98373.00;;;11.20
35582;BMP180;21687;48.900;9.188;2023-05-14T06:16:28;98373.00;;;11.30
35582;BMP180;21687;48.900;9.188;2023-05-14T06:18:55;98375.00;;;11.40
35582;BMP180;21687;48.900;9.188;2023-05-14T06:21:21;98377.00;;;11.50
35582;BMP180;21687;48.900;9.188;2023-05-14T06:23:47;98379.00;;;11.60
35582;BMP180;21687;48.900;9.188;2023-05-14T06:26:14;98377.00;;;11.60
35582;BMP180;21687;48.900;9.188;2023-05-14T06:28:41;98379.00;;;12.00
35582;BMP180;21687;48.900;9.188;2023-05-14T06:31:07;98373.00;;;12.20
35582;BMP180;21687;48.900;9.188;2023-05-14T06:33:33;98376.00;;;12.40
35582;BMP180;21687;48.900;9.188;2023-05-14T06:36:02;98374.00;;;12.60
35582;BMP180;21687;48.900;9.188;2023-05-14T06:38:29;98375.00;;;12.60
35582;BMP180;21687;48.900;9.188;2023-05-14T06:40:55;98368.00;;;12.40
35582;BMP180;21687;48.900;9.188;2023-05-14T06:43:21;98375.00;;;12.40
35582;BMP180;21687;48.900;9.188;2023-05-14T06:45:49;98370.00;;;12.50
35582;BMP180;21687;48.900;9.188;2023-05-14T06:48:16;98368.00;;;12.70
35582;BMP180;21687;48.900;9.188;2023-05-14T06:50:46;98379.00;;;12.30
35582;BMP180;21687;48.900;9.188;2023-05-14T06:53:14;98377.00;;;12.50
35582;BMP180;21687;48.900;9.188;2023-05-14T06:55:40;98373.00;;;12.70
35582;BMP180;21687;48.900;9.188;2023-05-14T06:58:07;98374.00;;;12.90
35582;BMP180;21687;48.900;9.188;2023-05-14T07:00:34;98380.00;;;13.20
35582;BMP180;21687;48.900;9.188;2023-05-14T07:03:00;98377.00;;;13.20
35582;BMP180;21687;48.900;9.188;2023-05-14T07:05:26;98371.00;;;13.20
35582;BMP180;21687;48.900;9.188;2023-05-14T07:07:53;98370.00;;;13.40
35582;BMP180;21687;48.900;9.188;2023-05-14T07:10:19;98374.00;;;13.80
35582;BMP180;21687;48.900;9.188;2023-05-14T07:12:45;98374.00;;;13.80
35582;BMP180;21687;48.900;9.188;2023-05-14T07:15:12;98368.00;;;14.40
35582;BMP180;21687;48.900;9.188;2023-05-14T07:17:38;98368.00;;;14.80
35582;BMP180;21687;48.900;9.188;2023-05-14T07:20:05;98379.00;;;15.20
35582;BMP180;21687;48.900;9.188;2023-05-14T07:22:31;98372.00;;;15.70
35582;BMP180;21687;48.900;9.188;2023-05-14T07:24:57;98372.00;;;16.60
35582;BMP180;21687;48.900;9.188;2023-05-14T07:27:24;98369.00;;;16.70
35582;BMP180;21687;48.900;9.188;2023-05-14T07:29:50;98371.00;;;15.70
35582;BMP180;21687;48.900;9.188;2023-05-14T07:32:17;98367.00;;;15.50
35582;BMP180;21687;48.900;9.188;2023-05-14T07:34:43;98368.00;;;16.20
35582;BMP180;21687;48.900;9.188;2023-05-14T07:37:09;98366.00;;;16.70
35582;BMP180;21687;48.900;9.188;2023-05-14T07:39:35;98358.00;;;17.40
35582;BMP180;21687;48.900;9.188;2023-05-14T07:42:03;98354.00;;;17.70
35582;BMP180;21687;48.900;9.188;2023-05-14T07:44:29;98351.00;;;18.10
35582;BMP180;21687;48.900;9.188;2023-05-14T07:46:55;98356.00;;;18.20
35582;BMP180;21687;48.900;9.188;2023-05-14T07:49:21;98356.00;;;18.70
35582;BMP180;21687;48.900;9.188;2023-05-14T07:51:47;98359.00;;;18.90
35582;BMP180;21687;48.900;9.188;2023-05-14T07:54:14;98357.00;;;18.30
35582;BMP180;21687;48.900;9.188;2023-05-14T07:56:40;98360.00;;;17.90
35582;BMP180;21687;48.900;9.188;2023-05-14T07:59:06;98361.00;;;17.30
35582;BMP180;21687;48.900;9.188;2023-05-14T08:01:32;98369.00;;;16.80
35582;BMP180;21687;48.900;9.188;2023-05-14T08:03:59;98364.00;;;16.50
35582;BMP180;21687;48.900;9.188;2023-05-14T08:06:25;98359.00;;;16.50
35582;BMP180;21687;48.900;9.188;2023-05-14T08:08:53;98366.00;;;16.10
35582;BMP180;21687;48.900;9.188;2023-05-14T08:11:19;98363.00;;;15.50
35582;BMP180;21687;48.900;9.188;2023-05-14T08:13:47;98367.00;;;15.80
35582;BMP180;21687;48.900;9.188;2023-05-14T08:16:13;98364.00;;;16.00
35582;BMP180;21687;48.900;9.188;2023-05-14T08:18:39;98369.00;;;16.00
35582;BMP180;21687;48.900;9.188;2023-05-14T08:21:06;98362.00;;;16.20
35582;BMP180;21687;48.900;9.188;2023-05-14T08:23:33;98359.00;;;16.30
35582;BMP180;21687;48.900;9.188;2023-05-14T08:25:59;98355.00;;;16.30
35582;BMP180;21687;48.900;9.188;2023-05-14T08:28:26;98352.00;;;16.50
35582;BMP180;21687;48.900;9.188;2023-05-14T08:30:52;98358.00;;;17.00
35582;BMP180;21687;48.900;9.188;2023-05-14T08:33:18;98348.00;;;17.30
35582;BMP180;21687;48.900;9.188;2023-05-14T08:35:45;98347.00;;;17.50
35582;BMP180;21687;48.900;9.188;2023-05-14T08:38:11;98340.00;;;17.90
35582;BMP180;21687;48.900;9.188;2023-05-14T08:40:37;98342.00;;;17.90
35582;BMP180;21687;48.900;9.188;2023-05-14T08:43:05;98359.00;;;17.70
35582;BMP180;21687;48.900;9.188;2023-05-14T08:45:31;98347.00;;;17.50
35582;BMP180;21687;48.900;9.188;2023-05-14T08:48:00;98348.00;;;17.80
35582;BMP180;21687;48.900;9.188;2023-05-14T08:50:27;98352.00;;;17.40
35582;BMP180;21687;48.900;9.188;2023-05-14T08:52:55;98343.00;;;17.00
35582;BMP180;21687;48.900;9.188;2023-05-14T08:55:21;98339.00;;;17.10
35582;BMP180;21687;48.900;9.188;2023-05-14T08:57:48;98340.00;;;17.50
35582;BMP180;21687;48.900;9.188;2023-05-14T09:00:14;98332.00;;;17.90
35582;BMP180;21687;48.900;9.188;2023-05-14T09:02:41;98341.00;;;17.50
35582;BMP180;21687;48.900;9.188;2023-05-14T09:05:09;98343.00;;;17.10
35582;BMP180;21687;48.900;9.188;2023-05-14T09:07:36;98342.00;;;17.40
35582;BMP180;21687;48.900;9.188;2023-05-14T09:10:03;98341.00;;;18.30
35582;BMP180;21687;48.900;9.188;2023-05-14T09:12:29;98342.00;;;18.90
35582;BMP180;21687;48.900;9.188;2023-05-14T09:14:56;98348.00;;;19.20
35582;BMP180;21687;48.900;9.188;2023-05-14T09:17:25;98335.00;;;19.60
35582;BMP180;21687;48.900;9.188;2023-05-14T09:19:52;98337.00;;;19.20
35582;BMP180;21687;48.900;9.188;2023-05-14T09:22:19;98343.00;;;18.30
35582;BMP180;21687;48.900;9.188;2023-05-14T09:24:45;98346.00;;;18.40
35582;BMP180;21687;48.900;9.188;2023-05-14T09:27:29;98343.00;;;18.40
35582;BMP180;21687;48.900;9.188;2023-05-14T09:30:04;98334.00;;;18.30
35582;BMP180;21687;48.900;9.188;2023-05-14T09:32:36;98335.00;;;18.90
35582;BMP180;21687;48.900;9.188;2023-05-14T09:35:22;98330.00;;;20.10
35582;BMP180;21687;48.900;9.188;2023-05-14T09:37:51;98326.00;;;21.40
35582;BMP180;21687;48.900;9.188;2023-05-14T09:40:19;98319.00;;;22.00
35582;BMP180;21687;48.900;9.188;2023-05-14T09:42:46;98323.00;;;22.40
35582;BMP180;21687;48.900;9.188;2023-05-14T09:45:14;98317.00;;;21.50
35582;BMP180;21687;48.900;9.188;2023-05-14T09:47:41;98319.00;;;20.80
35582;BMP180;21687;48.900;9.188;2023-05-14T09:50:08;98322.00;;;19.70
35582;BMP180;21687;48.900;9.188;2023-05-14T09:52:35;98314.00;;;19.50
35582;BMP180;21687;48.900;9.188;2023-05-14T09:55:02;98315.00;;;19.70
35582;BMP180;21687;48.900;9.188;2023-05-14T09:57:29;98318.00;;;20.10
35582;BMP180;21687;48.900;9.188;2023-05-14T09:59:55;98324.00;;;19.30
35582;BMP180;21687;48.900;9.188;2023-05-14T10:02:23;98313.00;;;18.00
35582;BMP180;21687;48.900;9.188;2023-05-14T10:04:52;98322.00;;;17.40
35582;BMP180;21687;48.900;9.188;2023-05-14T10:07:22;98312.00;;;17.00
35582;BMP180;21687;48.900;9.188;2023-05-14T10:09:53;98323.00;;;16.40
35582;BMP180;21687;48.900;9.188;2023-05-14T10:12:21;98319.00;;;16.40
35582;BMP180;21687;48.900;9.188;2023-05-14T10:14:50;98326.00;;;16.30
35582;BMP180;21687;48.900;9.188;2023-05-14T10:17:21;98323.00;;;16.40
35582;BMP180;21687;48.900;9.188;2023-05-14T10:19:54;98323.00;;;16.50
35582;BMP180;21687;48.900;9.188;2023-05-14T10:22:23;98324.00;;;16.40
35582;BMP180;21687;48.900;9.188;2023-05-14T10:24:51;98325.00;;;16.40
35582;BMP180;21687;48.900;9.188;2023-05-14T10:27:20;98318.00;;;16.90
35582;BMP180;21687;48.900;9.188;2023-05-14T10:29:54;98323.00;;;16.90
35582;BMP180;21687;48.900;9.188;2023-05-14T10:32:23;98323.00;;;16.90
35582;BMP180;21687;48.900;9.188;2023-05-14T10:34:51;98329.00;;;16.90
35582;BMP180;21687;48.900;9.188;2023-05-14T10:37:23;98328.00;;;16.30
35582;BMP180;21687;48.900;9.188;2023-05-14T10:47:16;98310.00;;;17.40
35582;BMP180;21687;48.900;9.188;2023-05-14T10:49:44;98307.00;;;17.50
35582;BMP180;21687;48.900;9.188;2023-05-14T10:52:11;98294.00;;;17.80
35582;BMP180;21687;48.900;9.188;2023-05-14T10:54:38;98291.00;;;18.30
35582;BMP180;21687;48.900;9.188;2023-05-14T10:57:10;98281.00;;;18.20
35582;BMP180;21687;48.900;9.188;2023-05-14T10:59:36;98284.00;;;18.30
35582;BMP180;21687;48.900;9.188;2023-05-14T11:02:05;98287.00;;;19.10
35582;BMP180;21687;48.900;9.188;2023-05-14T11:07:49;98275.00;;;19.60
35582;BMP180;21687;48.900;9.188;2023-05-14T11:10:20;98272.00;;;19.40
35582;BMP180;21687;48.900;9.188;2023-05-14T11:12:48;98270.00;;;19.20
35582;BMP180;21687;48.900;9.188;2023-05-14T11:15:20;98281.00;;;18.90
35582;BMP180;21687;48.900;9.188;2023-05-14T11:17:48;98281.00;;;18.90
35582;BMP180;21687;48.900;9.188;2023-05-14T11:20:14;98278.00;;;18.40
35582;BMP180;21687;48.900;9.188;2023-05-14T11:22:42;98264.00;;;18.20
35582;BMP180;21687;48.900;9.188;2023-05-14T11:25:10;98264.00;;;18.10
35582;BMP180;21687;48.900;9.188;2023-05-14T11:27:40;98265.00;;;18.70
35582;BMP180;21687;48.900;9.188;2023-05-14T11:30:17;98258.00;;;19.20
35582;BMP180;21687;48.900;9.188;2023-05-14T11:32:44;98251.00;;;19.20
35582;BMP180;21687;48.900;9.188;2023-05-14T11:35:11;98253.00;;;19.20
35582;BMP180;21687;48.900;9.188;2023-05-14T11:37:37;98255.00;;;18.40
35582;BMP180;21687;48.900;9.188;2023-05-14T11:40:07;98258.00;;;17.80
35582;BMP180;21687;48.900;9.188;2023-05-14T11:42:36;98257.00;;;17.60
35582;BMP180;21687;48.900;9.188;2023-05-14T11:45:02;98254.00;;;17.70
35582;BMP180;21687;48.900;9.188;2023-05-14T11:47:29;98249.00;;;17.90
35582;BMP180;21687;48.900;9.188;2023-05-14T11:49:56;98252.00;;;17.90
35582;BMP180;21687;48.900;9.188;2023-05-14T11:52:24;98245.00;;;17.70
35582;BMP180;21687;48.900;9.188;2023-05-14T11:54:50;98250.00;;;17.70
35582;BMP180;21687;48.900;9.188;2023-05-14T11:57:18;98248.00;;;17.90
35582;BMP180;21687;48.900;9.188;2023-05-14T11:59:47;98241.00;;;17.70
35582;BMP180;21687;48.900;9.188;2023-05-14T12:02:16;98239.00;;;18.00
35582;BMP180;21687;48.900;9.188;2023-05-14T12:04:43;98254.00;;;17.80
35582;BMP180;21687;48.900;9.188;2023-05-14T12:07:10;98248.00;;;17.80
35582;BMP180;21687;48.900;9.188;2023-05-14T12:09:41;98249.00;;;17.60
35582;BMP180;21687;48.900;9.188;2023-05-14T12:12:11;98246.00;;;17.70
35582;BMP180;21687;48.900;9.188;2023-05-14T12:14:41;98237.00;;;18.10
35582;BMP180;21687;48.900;9.188;2023-05-14T12:17:15;98228.00;;;18.10
35582;BMP180;21687;48.900;9.188;2023-05-14T12:19:43;98231.00;;;18.20
35582;BMP180;21687;48.900;9.188;2023-05-14T12:22:10;98229.00;;;18.30
35582;BMP180;21687;48.900;9.188;2023-05-14T12:24:37;98233.00;;;18.60
35582;BMP180;21687;48.900;9.188;2023-05-14T12:27:05;98230.00;;;18.80
35582;BMP180;21687;48.900;9.188;2023-05-14T12:29:35;98233.00;;;18.90
35582;BMP180;21687;48.900;9.188;2023-05-14T12:32:06;98233.00;;;18.40
35582;BMP180;21687;48.900;9.188;2023-05-14T12:34:34;98218.00;;;19.00
35582;BMP180;21687;48.900;9.188;2023-05-14T12:37:01;98215.00;;;19.30
35582;BMP180;21687;48.900;9.188;2023-05-14T12:39:28;98215.00;;;19.00
35582;BMP180;21687;48.900;9.188;2023-05-14T12:41:55;98208.00;;;18.90
35582;BMP180;21687;48.900;9.188;2023-05-14T12:44:21;98224.00;;;18.40
35582;BMP180;21687;48.900;9.188;2023-05-14T12:46:47;98204.00;;;17.90
35582;BMP180;21687;48.900;9.188;2023-05-14T12:49:13;98213.00;;;17.60
35582;BMP180;21687;48.900;9.188;2023-05-14T12:51:40;98206.00;;;17.40
35582;BMP180;21687;48.900;9.188;2023-05-14T12:54:06;98194.00;;;17.90
35582;BMP180;21687;48.900;9.188;2023-05-14T12:56:32;98201.00;;;18.50
35582;BMP180;21687;48.900;9.188;2023-05-14T12:58:59;98204.00;;;18.80
35582;BMP180;21687;48.900;9.188;2023-05-14T13:01:25;98198.00;;;18.30
35582;BMP180;21687;48.900;9.188;2023-05-14T13:03:51;98193.00;;;18.00
35582;BMP180;21687;48.900;9.188;2023-05-14T13:06:17;98186.00;;;18.70
35582;BMP180;21687;48.900;9.188;2023-05-14T13:08:44;98194.00;;;18.60
35582;BMP180;21687;48.900;9.188;2023-05-14T13:11:10;98186.00;;;18.50
35582;BMP180;21687;48.900;9.188;2023-05-14T13:13:37;98184.00;;;18.50
35582;BMP180;21687;48.900;9.188;2023-05-14T13:16:03;98178.00;;;18.80
35582;BMP180;21687;48.900;9.188;2023-05-14T13:18:30;98183.00;;;18.20
35582;BMP180;21687;48.900;9.188;2023-05-14T13:20:56;98182.00;;;17.80
35582;BMP180;21687;48.900;9.188;2023-05-14T13:23:22;98181.00;;;18.10
35582;BMP180;21687;48.900;9.188;2023-05-14T13:25:48;98178.00;;;18.10
35582;BMP180;21687;48.900;9.188;2023-05-14T13:28:15;98175.00;;;18.10
35582;BMP180;21687;48.900;9.188;2023-05-14T13:30:42;98174.00;;;18.10
35582;BMP180;21687;48.900;9.188;2023-05-14T13:33:27;98167.00;;;18.60
35582;BMP180;21687;48.900;9.188;2023-05-14T13:35:53;98167.00;;;18.60
35582;BMP180;21687;48.900;9.188;2023-05-14T13:38:20;98168.00;;;18.70
35582;BMP180;21687;48.900;9.188;2023-05-14T13:40:46;98163.00;;;18.50
35582;BMP180;21687;48.900;9.188;2023-05-14T13:43:12;98160.00;;;18.10
35582;BMP180;21687;48.900;9.188;2023-05-14T13:45:42;98158.00;;;17.80
35582;BMP180;21687;48.900;9.188;2023-05-14T13:48:08;98164.00;;;17.70
35582;BMP180;21687;48.900;9.188;2023-05-14T13:50:34;98156.00;;;17.90
35582;BMP180;21687;48.900;9.188;2023-05-14T13:53:01;98155.00;;;18.00
35582;BMP180;21687;48.900;9.188;2023-05-14T13:55:27;98143.00;;;18.20
35582;BMP180;21687;48.900;9.188;2023-05-14T13:57:53;98137.00;;;18.50
35582;BMP180;21687;48.900;9.188;2023-05-14T14:00:19;98141.00;;;18.40
35582;BMP180;21687;48.900;9.188;2023-05-14T14:02:46;98151.00;;;18.40
35582;BMP180;21687;48.900;9.188;2023-05-14T14:05:12;98131.00;;;18.40
35582;BMP180;21687;48.900;9.188;2023-05-14T14:07:38;98121.00;;;18.30
35582;BMP180;21687;48.900;9.188;2023-05-14T14:10:06;98121.00;;;18.20
35582;BMP180;21687;48.900;9.188;2023-05-14T14:12:32;98119.00;;;18.40
35582;BMP180;21687;48.900;9.188;2023-05-14T14:14:58;98114.00;;;18.30
35582;BMP180;21687;48.900;9.188;2023-05-14T14:17:26;98124.00;;;18.10
35582;BMP180;21687;48.900;9.188;2023-05-14T14:19:52;98130.00;;;18.40
35582;BMP180;21687;48.900;9.188;2023-05-14T14:22:18;98121.00;;;18.30
35582;BMP180;21687;48.900;9.188;2023-05-14T14:24:44;98128.00;;;18.30
35582;BMP180;21687;48.900;9.188;2023-05-14T14:27:11;98122.00;;;18.30
35582;BMP180;21687;48.900;9.188;2023-05-14T14:29:37;98108.00;;;18.40
35582;BMP180;21687;48.900;9.188;2023-05-14T14:32:04;98107.00;;;18.50
35582;BMP180;21687;48.900;9.188;2023-05-14T14:34:30;98116.00;;;18.80